Terminal Aerodrome Forecast
Issued by NWS Binghamton, NY

Home | Current Version | Previous Version | Text Only | Print | Product List | Glossary On
Versions: 1 2 3 4 5 6 7 8 9 10 11 12 13 14 15 16 17
578
FTUS41 KBGM 251730
TAFAVP
TAF
KAVP 251730Z 2518/2618 07010G20KT P6SM OVC015
     FM252000 07008KT 5SM -RA BR SCT008 OVC012
     FM260200 05005KT 4SM BR OVC008
     FM261300 VRB04KT P6SM BKN012 OVC030=

USA.gov is the U.S. government's official web portal to all federal, state and local government web resources and services.